Time;durP1;ratioP1;P1;durP2;ratioP2;P2;SDS_P1;SDS_P2;PMS_P1;PMS_P2;Temp;Humidity;BMP_temperature;BMP_pressure;BME280_temperature;BME280_humidity;BME280_pressure;Samples;Min_cycle;Max_cycle;Signal;HPM_P1;HPM_P2
2022/03/24 00:01:57;;;;;;;;;;;;;;;;;;5009096;28;19951;-47
2022/03/24 00:04:24;;;;;;;;;;;;;;;;;;5007527;28;20265;-47
2022/03/24 00:06:50;;;;;;;;;;;;;;;;;;5008616;28;19932;-44
2022/03/24 00:09:17;;;;;;;;;;;;;;;;;;5009612;28;19914;-43
2022/03/24 00:11:47;;;;;;;;;;;;;;;;;;5010452;28;19917;-43
2022/03/24 00:14:15;;;;;;;;;;;;;;;;;;5008363;28;19914;-42
2022/03/24 00:16:41;;;;;;;;;;;;;;;;;;5008212;28;19914;-49
2022/03/24 00:19:08;;;;;;;;;;;;;;;;;;5009577;28;19920;-45
2022/03/24 00:21:35;;;;;;;;;;;;;;;;;;5010147;28;19962;-41
2022/03/24 00:24:01;;;;;;;;;;;;;;;;;;5010907;28;19961;-43
2022/03/24 00:26:28;;;;;;;;;;;;;;;;;;5005693;28;20386;-40
2022/03/24 00:28:54;;;;;;;;;;;;;;;;;;5010432;28;20316;-49
2022/03/24 00:31:21;;;;;;;;;;;;;;;;;;5013665;28;19924;-41
2022/03/24 00:33:47;;;;;;;;;;;;;;;;;;5014031;28;19916;-41
2022/03/24 00:36:14;;;;;;;;;;;;;;;;;;5009193;28;19924;-44
2022/03/24 00:38:41;;;;;;;;;;;;;;;;;;5014018;28;19925;-42
2022/03/24 00:41:07;;;;;;;;;;;;;;;;;;5014031;28;19913;-45
2022/03/24 00:43:33;;;;;;;;;;;;;;;;;;5014197;28;20026;-42
2022/03/24 00:46:00;;;;;;;;;;;;;;;;;;5009407;28;19929;-51
2022/03/24 00:48:27;;;;;;;;;;;;;;;;;;5014582;28;19913;-46
2022/03/24 00:50:53;;;;;;;;;;;;;;;;;;5015004;28;20306;-43
2022/03/24 00:53:20;;;;;;;;;;;;;;;;;;4995587;28;19913;-57
2022/03/24 00:55:46;;;;;;;;;;;;;;;;;;5008224;28;19999;-50
2022/03/24 00:58:13;;;;;;;;;;;;;;;;;;5014362;28;19920;-49
2022/03/24 01:00:41;;;;;;;;;;;;;;;;;;5013642;28;19968;-44
2022/03/24 01:03:08;;;;;;;;;;;;;;;;;;5013724;28;19921;-48
2022/03/24 01:05:37;;;;;;;;;;;;;;;;;;5009014;28;19917;-43
2022/03/24 01:08:04;;;;;;;;;;;;;;;;;;4997555;28;20423;-54
2022/03/24 01:10:30;;;;;;;;;;;;;;;;;;5014763;28;20391;-51
2022/03/24 01:12:59;;;;;;;;;;;;;;;;;;5015462;28;20334;-46
2022/03/24 01:15:26;;;;;;;;;;;;;;;;;;5015003;28;19968;-49
2022/03/24 01:17:53;;;;;;;;;;;;;;;;;;5015461;28;20378;-56
2022/03/24 01:20:19;;;;;;;;;;;;;;;;;;5015355;28;20284;-53
2022/03/24 01:22:46;;;;;;;;;;;;;;;;;;4997569;28;19916;-51
2022/03/24 01:25:12;;;;;;;;;;;;;;;;;;5008818;28;20020;-45
2022/03/24 01:27:39;;;;;;;;;;;;;;;;;;5013899;28;19910;-48
2022/03/24 01:30:09;;;;;;;;;;;;;;;;;;5013953;28;19931;-58
2022/03/24 01:32:35;;;;;;;;;;;;;;;;;;5010742;28;19976;-50
2022/03/24 01:35:01;;;;;;;;;;;;;;;;;;5012838;28;19918;-55
2022/03/24 01:37:28;;;;;;;;;;;;;;;;;;5012778;28;19957;-49
2022/03/24 01:39:54;;;;;;;;;;;;;;;;;;5012597;28;20291;-52
2022/03/24 01:42:21;;;;;;;;;;;;;;;;;;5008161;28;19922;-51
2022/03/24 01:44:48;;;;;;;;;;;;;;;;;;5013048;28;20323;-46
2022/03/24 01:47:14;;;;;;;;;;;;;;;;;;5014175;28;19964;-41
2022/03/24 01:49:41;;;;;;;;;;;;;;;;;;5012424;28;20013;-47
2022/03/24 01:52:07;;;;;;;;;;;;;;;;;;5010333;28;19921;-52
2022/03/24 01:54:33;;;;;;;;;;;;;;;;;;5011409;28;19913;-48
2022/03/24 01:57:00;;;;;;;;;;;;;;;;;;5012653;28;20408;-48
2022/03/24 01:59:26;;;;;;;;;;;;;;;;;;5012427;28;20012;-46
2022/03/24 02:01:53;;;;;;;;;;;;;;;;;;5012658;28;19914;-47
2022/03/24 02:04:19;;;;;;;;;;;;;;;;;;5007726;28;19944;-51
2022/03/24 02:06:46;;;;;;;;;;;;;;;;;;5011524;28;19975;-44
2022/03/24 02:09:12;;;;;;;;;;;;;;;;;;4992601;28;19909;-41
2022/03/24 02:11:39;;;;;;;;;;;;;;;;;;4993203;28;19909;-44
2022/03/24 02:14:05;;;;;;;;;;;;;;;;;;5006931;28;19940;-41
2022/03/24 02:16:34;;;;;;;;;;;;;;;;;;5010896;28;19914;-49
2022/03/24 02:19:01;;;;;;;;;;;;;;;;;;5011132;28;19910;-50
2022/03/24 02:21:27;;;;;;;;;;;;;;;;;;5011499;28;19909;-43
2022/03/24 02:23:53;;;;;;;;;;;;;;;;;;5007851;28;20012;-41
2022/03/24 02:26:20;;;;;;;;;;;;;;;;;;5008011;28;19910;-40
2022/03/24 02:28:46;;;;;;;;;;;;;;;;;;5012846;28;19913;-40
2022/03/24 02:31:13;;;;;;;;;;;;;;;;;;5012675;28;19949;-39
2022/03/24 02:33:39;;;;;;;;;;;;;;;;;;5008092;28;20000;-43
2022/03/24 02:36:07;;;;;;;;;;;;;;;;;;5012120;28;19925;-54
2022/03/24 02:38:33;;;;;;;;;;;;;;;;;;5012129;28;19922;-54
2022/03/24 02:40:59;;;;;;;;;;;;;;;;;;4994507;28;19914;-54
2022/03/24 02:43:27;;;;;;;;;;;;;;;;;;5007906;28;19914;-52
2022/03/24 02:45:54;;;;;;;;;;;;;;;;;;4989846;28;20319;-39
2022/03/24 02:48:20;;;;;;;;;;;;;;;;;;5012484;28;19913;-39
2022/03/24 02:50:47;;;;;;;;;;;;;;;;;;5012140;28;19909;-56
2022/03/24 02:53:13;;;;;;;;;;;;;;;;;;5006143;28;20001;-50
2022/03/24 02:55:39;;;;;;;;;;;;;;;;;;5010638;28;19913;-42
2022/03/24 02:58:06;;;;;;;;;;;;;;;;;;5011377;28;20315;-42
2022/03/24 03:00:33;;;;;;;;;;;;;;;;;;5012243;28;19988;-48
2022/03/24 03:02:59;;;;;;;;;;;;;;;;;;5002621;28;19918;-42
2022/03/24 03:05:26;;;;;;;;;;;;;;;;;;5011319;28;19909;-42
2022/03/24 03:07:53;;;;;;;;;;;;;;;;;;5011510;28;19925;-44
2022/03/24 03:10:19;;;;;;;;;;;;;;;;;;4993858;28;19917;-41
2022/03/24 03:12:46;;;;;;;;;;;;;;;;;;5011204;28;19913;-53
2022/03/24 03:15:13;;;;;;;;;;;;;;;;;;5003756;28;19913;-44
2022/03/24 03:17:39;;;;;;;;;;;;;;;;;;5008270;28;20264;-51
2022/03/24 03:20:06;;;;;;;;;;;;;;;;;;5012281;28;19969;-40
2022/03/24 03:22:35;;;;;;;;;;;;;;;;;;5007063;28;19921;-55
2022/03/24 03:25:02;;;;;;;;;;;;;;;;;;5010701;28;19918;-48
2022/03/24 03:27:31;;;;;;;;;;;;;;;;;;4994346;28;19909;-41
2022/03/24 03:29:57;;;;;;;;;;;;;;;;;;5012015;28;19918;-45
2022/03/24 03:32:24;;;;;;;;;;;;;;;;;;5010996;28;19917;-44
2022/03/24 03:34:51;;;;;;;;;;;;;;;;;;5013126;28;19916;-43
2022/03/24 03:37:17;;;;;;;;;;;;;;;;;;5013389;28;19909;-54
2022/03/24 03:39:44;;;;;;;;;;;;;;;;;;5012726;28;19951;-56
2022/03/24 03:42:10;;;;;;;;;;;;;;;;;;5012960;28;19910;-50
2022/03/24 03:44:37;;;;;;;;;;;;;;;;;;5012421;28;19918;-55
2022/03/24 03:47:03;;;;;;;;;;;;;;;;;;5012704;28;19948;-54
2022/03/24 03:49:30;;;;;;;;;;;;;;;;;;5012533;28;19909;-52
2022/03/24 03:51:56;;;;;;;;;;;;;;;;;;5012480;28;19909;-55
2022/03/24 03:54:23;;;;;;;;;;;;;;;;;;5012687;28;20380;-55
2022/03/24 03:56:49;;;;;;;;;;;;;;;;;;5011861;28;20341;-57
2022/03/24 03:59:16;;;;;;;;;;;;;;;;;;5013047;28;20276;-54
2022/03/24 04:01:43;;;;;;;;;;;;;;;;;;5012546;28;19914;-58
2022/03/24 04:04:12;;;;;;;;;;;;;;;;;;5012380;28;20372;-43
2022/03/24 04:06:38;;;;;;;;;;;;;;;;;;5006425;28;19944;-55
2022/03/24 04:09:05;;;;;;;;;;;;;;;;;;5008098;28;19951;-55
2022/03/24 04:11:32;;;;;;;;;;;;;;;;;;5006399;28;20304;-46
2022/03/24 04:13:58;;;;;;;;;;;;;;;;;;5008295;28;20036;-41
2022/03/24 04:16:25;;;;;;;;;;;;;;;;;;5010352;28;20000;-48
2022/03/24 04:18:51;;;;;;;;;;;;;;;;;;5008533;28;19913;-52
2022/03/24 04:21:21;;;;;;;;;;;;;;;;;;5012052;28;19915;-56
2022/03/24 04:23:48;;;;;;;;;;;;;;;;;;5012030;28;19924;-50
2022/03/24 04:26:14;;;;;;;;;;;;;;;;;;5003728;28;19913;-45
2022/03/24 04:28:43;;;;;;;;;;;;;;;;;;5010020;28;19913;-47
2022/03/24 04:31:09;;;;;;;;;;;;;;;;;;5008882;28;19917;-46
2022/03/24 04:33:37;;;;;;;;;;;;;;;;;;5006358;28;20033;-48
2022/03/24 04:36:05;;;;;;;;;;;;;;;;;;5010518;28;19910;-47
2022/03/24 04:38:32;;;;;;;;;;;;;;;;;;5008794;28;19925;-45
2022/03/24 04:40:58;;;;;;;;;;;;;;;;;;5008378;28;20403;-48
2022/03/24 04:43:25;;;;;;;;;;;;;;;;;;5007200;28;20422;-42
2022/03/24 04:45:51;;;;;;;;;;;;;;;;;;5009870;28;20242;-45
2022/03/24 04:48:18;;;;;;;;;;;;;;;;;;5009363;28;20238;-46
2022/03/24 04:50:44;;;;;;;;;;;;;;;;;;5009550;28;19926;-46
2022/03/24 04:53:15;;;;;;;;;;;;;;;;;;5005911;28;19988;-45
2022/03/24 04:55:42;;;;;;;;;;;;;;;;;;5010273;28;19909;-44
2022/03/24 04:58:08;;;;;;;;;;;;;;;;;;5007905;28;20360;-45
2022/03/24 05:00:35;;;;;;;;;;;;;;;;;;5010100;28;20284;-47
2022/03/24 05:03:01;;;;;;;;;;;;;;;;;;5005819;28;19921;-46
2022/03/24 05:05:28;;;;;;;;;;;;;;;;;;5007223;28;19953;-43
2022/03/24 05:07:55;;;;;;;;;;;;;;;;;;5009402;28;19913;-41
2022/03/24 05:10:21;;;;;;;;;;;;;;;;;;5009749;28;19916;-43
2022/03/24 05:12:48;;;;;;;;;;;;;;;;;;5002283;28;20360;-51
2022/03/24 05:15:14;;;;;;;;;;;;;;;;;;5008302;28;20030;-43
2022/03/24 05:17:41;;;;;;;;;;;;;;;;;;5012886;28;19957;-45
2022/03/24 05:20:10;;;;;;;;;;;;;;;;;;5011016;28;20348;-47
2022/03/24 05:22:36;;;;;;;;;;;;;;;;;;5008257;28;19967;-45
2022/03/24 05:25:03;;;;;;;;;;;;;;;;;;5013126;28;19932;-45
2022/03/24 05:27:29;;;;;;;;;;;;;;;;;;5012867;28;19910;-44
2022/03/24 05:29:56;;;;;;;;;;;;;;;;;;5013500;28;20360;-41
2022/03/24 05:32:22;;;;;;;;;;;;;;;;;;5007307;28;19956;-44
2022/03/24 05:34:49;;;;;;;;;;;;;;;;;;5012952;28;19917;-43
2022/03/24 05:37:15;;;;;;;;;;;;;;;;;;5012892;28;19909;-54
2022/03/24 05:39:42;;;;;;;;;;;;;;;;;;5012080;28;20399;-42
2022/03/24 05:42:09;;;;;;;;;;;;;;;;;;5008132;28;19917;-46
2022/03/24 05:44:35;;;;;;;;;;;;;;;;;;5012814;28;20043;-52
2022/03/24 05:47:02;;;;;;;;;;;;;;;;;;5012614;28;19909;-50
2022/03/24 05:49:29;;;;;;;;;;;;;;;;;;5012080;28;19910;-42
2022/03/24 05:51:55;;;;;;;;;;;;;;;;;;5007862;28;20669;-47
2022/03/24 05:54:22;;;;;;;;;;;;;;;;;;5012441;28;20481;-39
2022/03/24 05:56:48;;;;;;;;;;;;;;;;;;5012734;28;20032;-48
2022/03/24 05:59:15;;;;;;;;;;;;;;;;;;5011860;28;19910;-40
2022/03/24 06:01:41;;;;;;;;;;;;;;;;;;4990349;28;20423;-46
2022/03/24 06:04:08;;;;;;;;;;;;;;;;;;5012882;28;19925;-49
2022/03/24 06:06:34;;;;;;;;;;;;;;;;;;5011934;28;20108;-45
2022/03/24 06:09:01;;;;;;;;;;;;;;;;;;5011596;28;19909;-44
2022/03/24 06:11:27;;;;;;;;;;;;;;;;;;5009275;28;19964;-41
2022/03/24 06:13:54;;;;;;;;;;;;;;;;;;5010739;28;19920;-46
2022/03/24 06:16:21;;;;;;;;;;;;;;;;;;5011841;28;20355;-45
2022/03/24 06:18:48;;;;;;;;;;;;;;;;;;5010879;28;20014;-45
2022/03/24 06:21:15;;;;;;;;;;;;;;;;;;5011767;28;19960;-55
2022/03/24 06:23:41;;;;;;;;;;;;;;;;;;5007426;28;19918;-43
2022/03/24 06:26:11;;;;;;;;;;;;;;;;;;5011673;28;19909;-46
2022/03/24 06:28:41;;;;;;;;;;;;;;;;;;5011511;28;19944;-48
2022/03/24 06:31:08;;;;;;;;;;;;;;;;;;5012075;28;19913;-41
2022/03/24 06:33:34;;;;;;;;;;;;;;;;;;5006601;28;19918;-43
2022/03/24 06:36:01;;;;;;;;;;;;;;;;;;5011884;28;20000;-47
2022/03/24 06:38:28;;;;;;;;;;;;;;;;;;5010627;28;19926;-48
2022/03/24 06:40:54;;;;;;;;;;;;;;;;;;5011272;28;20008;-45
2022/03/24 06:43:25;;;;;;;;;;;;;;;;;;5006725;28;20284;-47
2022/03/24 06:45:51;;;;;;;;;;;;;;;;;;4994372;28;20353;-47
2022/03/24 06:48:18;;;;;;;;;;;;;;;;;;5010800;28;20249;-53
2022/03/24 06:50:45;;;;;;;;;;;;;;;;;;5011160;28;20003;-47
2022/03/24 06:53:12;;;;;;;;;;;;;;;;;;5006354;28;19917;-45
2022/03/24 06:55:38;;;;;;;;;;;;;;;;;;5011739;28;20284;-47
2022/03/24 06:58:06;;;;;;;;;;;;;;;;;;5010563;28;19963;-46
2022/03/24 07:00:32;;;;;;;;;;;;;;;;;;5012291;28;19919;-42
2022/03/24 07:02:59;;;;;;;;;;;;;;;;;;4988053;28;19913;-47
2022/03/24 07:05:25;;;;;;;;;;;;;;;;;;5010704;28;19960;-49
2022/03/24 07:07:52;;;;;;;;;;;;;;;;;;5009911;28;19992;-50
2022/03/24 07:10:20;;;;;;;;;;;;;;;;;;5011257;28;19914;-46
2022/03/24 07:12:48;;;;;;;;;;;;;;;;;;5006274;28;19949;-52
2022/03/24 07:15:14;;;;;;;;;;;;;;;;;;5012033;28;19963;-40
2022/03/24 07:17:41;;;;;;;;;;;;;;;;;;5010080;28;19964;-42
2022/03/24 07:20:08;;;;;;;;;;;;;;;;;;5009916;28;19992;-41
2022/03/24 07:22:34;;;;;;;;;;;;;;;;;;5005967;28;19913;-42
2022/03/24 07:25:01;;;;;;;;;;;;;;;;;;5011046;28;20065;-44
2022/03/24 07:27:27;;;;;;;;;;;;;;;;;;5011012;28;20229;-40
2022/03/24 07:29:54;;;;;;;;;;;;;;;;;;5010398;28;19913;-45
2022/03/24 07:32:20;;;;;;;;;;;;;;;;;;4988100;28;19909;-47
2022/03/24 07:34:47;;;;;;;;;;;;;;;;;;5011327;28;19935;-40
2022/03/24 07:37:13;;;;;;;;;;;;;;;;;;5011410;28;19940;-43
2022/03/24 07:39:40;;;;;;;;;;;;;;;;;;5009335;28;19925;-41
2022/03/24 07:42:06;;;;;;;;;;;;;;;;;;5005749;28;19917;-43
2022/03/24 07:44:33;;;;;;;;;;;;;;;;;;5010848;28;19917;-42
2022/03/24 07:46:59;;;;;;;;;;;;;;;;;;5010734;28;19916;-42
2022/03/24 07:49:26;;;;;;;;;;;;;;;;;;5009658;28;19956;-48
2022/03/24 07:51:53;;;;;;;;;;;;;;;;;;5005468;28;19959;-42
2022/03/24 07:54:19;;;;;;;;;;;;;;;;;;5010867;28;19941;-46
2022/03/24 07:56:46;;;;;;;;;;;;;;;;;;5010965;28;19917;-42
2022/03/24 07:59:12;;;;;;;;;;;;;;;;;;5010245;28;19951;-57
2022/03/24 08:01:39;;;;;;;;;;;;;;;;;;5012073;28;19955;-54
2022/03/24 08:04:05;;;;;;;;;;;;;;;;;;5012359;28;19917;-52
2022/03/24 08:06:32;;;;;;;;;;;;;;;;;;5012756;28;19916;-54
2022/03/24 08:08:58;;;;;;;;;;;;;;;;;;5012398;28;19956;-53
2022/03/24 08:11:27;;;;;;;;;;;;;;;;;;5012329;28;19913;-54
2022/03/24 08:13:55;;;;;;;;;;;;;;;;;;5012404;28;19944;-56
2022/03/24 08:16:21;;;;;;;;;;;;;;;;;;5011939;28;20008;-56
2022/03/24 08:18:47;;;;;;;;;;;;;;;;;;5012328;28;20318;-58
2022/03/24 08:21:14;;;;;;;;;;;;;;;;;;5013070;28;19913;-59
2022/03/24 08:23:41;;;;;;;;;;;;;;;;;;5012637;28;19933;-55
2022/03/24 08:26:07;;;;;;;;;;;;;;;;;;5012646;28;19909;-55
2022/03/24 08:28:33;;;;;;;;;;;;;;;;;;5012411;28;19963;-54
2022/03/24 08:31:00;;;;;;;;;;;;;;;;;;5012240;28;19960;-55
2022/03/24 08:33:27;;;;;;;;;;;;;;;;;;5012305;28;20285;-62
2022/03/24 08:35:54;;;;;;;;;;;;;;;;;;5012472;28;20071;-52
2022/03/24 08:38:20;;;;;;;;;;;;;;;;;;5012135;28;19913;-53
2022/03/24 08:40:47;;;;;;;;;;;;;;;;;;5012394;28;20265;-55
2022/03/24 08:43:14;;;;;;;;;;;;;;;;;;5012382;28;20260;-52
2022/03/24 08:45:40;;;;;;;;;;;;;;;;;;5012337;28;19971;-56
2022/03/24 08:48:06;;;;;;;;;;;;;;;;;;5012496;28;20363;-56
2022/03/24 08:50:34;;;;;;;;;;;;;;;;;;5011987;28;20355;-56
2022/03/24 08:53:02;;;;;;;;;;;;;;;;;;5015643;28;19905;-53
2022/03/24 08:55:29;;;;;;;;;;;;;;;;;;5015364;28;19917;-52
2022/03/24 08:57:55;;;;;;;;;;;;;;;;;;5015933;28;19996;-55
2022/03/24 09:00:23;;;;;;;;;;;;;;;;;;5016263;28;19910;-56
2022/03/24 09:02:49;;;;;;;;;;;;;;;;;;5015904;28;19906;-56
2022/03/24 09:05:19;;;;;;;;;;;;;;;;;;5015604;28;19921;-53
2022/03/24 09:07:45;;;;;;;;;;;;;;;;;;5015635;28;19964;-49
2022/03/24 09:10:12;;;;;;;;;;;;;;;;;;5016170;28;20341;-55
2022/03/24 09:12:39;;;;;;;;;;;;;;;;;;5016369;28;19925;-53
2022/03/24 09:15:07;;;;;;;;;;;;;;;;;;5016320;28;19916;-56
2022/03/24 09:17:37;;;;;;;;;;;;;;;;;;5015725;28;19913;-51
2022/03/24 09:20:04;;;;;;;;;;;;;;;;;;5016291;28;19914;-48
2022/03/24 09:22:31;;;;;;;;;;;;;;;;;;5016101;28;19909;-48
2022/03/24 09:24:57;;;;;;;;;;;;;;;;;;5008504;28;19922;-50
2022/03/24 09:27:23;;;;;;;;;;;;;;;;;;5009997;28;19952;-43
2022/03/24 09:29:50;;;;;;;;;;;;;;;;;;5012487;28;19936;-48
2022/03/24 09:32:16;;;;;;;;;;;;;;;;;;5014001;28;19910;-54
2022/03/24 09:34:43;;;;;;;;;;;;;;;;;;5014355;28;19916;-53
2022/03/24 09:37:10;;;;;;;;;;;;;;;;;;5010762;28;19992;-50
2022/03/24 09:39:36;;;;;;;;;;;;;;;;;;5010976;28;19979;-47
2022/03/24 09:42:02;;;;;;;;;;;;;;;;;;5014506;28;19909;-45
2022/03/24 09:44:29;;;;;;;;;;;;;;;;;;5011839;28;19940;-47
2022/03/24 09:46:56;;;;;;;;;;;;;;;;;;5013371;28;19955;-47
2022/03/24 09:49:22;;;;;;;;;;;;;;;;;;5010604;28;19914;-41
2022/03/24 09:51:49;;;;;;;;;;;;;;;;;;5011754;28;19910;-51
2022/03/24 09:54:15;;;;;;;;;;;;;;;;;;5013628;28;19909;-41
2022/03/24 09:56:42;;;;;;;;;;;;;;;;;;5012869;28;20477;-43
2022/03/24 09:59:09;;;;;;;;;;;;;;;;;;5007601;28;19968;-42
2022/03/24 10:01:36;;;;;;;;;;;;;;;;;;5012948;28;19949;-47
2022/03/24 10:04:03;;;;;;;;;;;;;;;;;;5013695;28;19917;-45
2022/03/24 10:06:29;;;;;;;;;;;;;;;;;;4992492;28;20328;-41
2022/03/24 10:08:55;;;;;;;;;;;;;;;;;;5008472;28;19932;-42
2022/03/24 10:11:22;;;;;;;;;;;;;;;;;;5013460;28;19910;-47
2022/03/24 10:13:53;;;;;;;;;;;;;;;;;;5011200;28;19929;-40
2022/03/24 10:16:19;;;;;;;;;;;;;;;;;;5012149;28;19910;-47
2022/03/24 10:18:46;;;;;;;;;;;;;;;;;;5007506;28;19925;-42
2022/03/24 10:21:13;;;;;;;;;;;;;;;;;;5010803;28;20269;-41
2022/03/24 10:23:39;;;;;;;;;;;;;;;;;;5012653;28;20005;-42
2022/03/24 10:26:06;;;;;;;;;;;;;;;;;;5011830;28;19984;-41
2022/03/24 10:28:32;;;;;;;;;;;;;;;;;;5005276;28;19925;-42
2022/03/24 10:30:59;;;;;;;;;;;;;;;;;;5012311;28;20261;-42
2022/03/24 10:33:26;;;;;;;;;;;;;;;;;;5012133;28;19958;-48
2022/03/24 10:35:52;;;;;;;;;;;;;;;;;;5012318;28;19918;-48
2022/03/24 10:38:19;;;;;;;;;;;;;;;;;;5007319;28;20003;-44
2022/03/24 10:40:45;;;;;;;;;;;;;;;;;;5013167;28;19917;-48
2022/03/24 10:43:12;;;;;;;;;;;;;;;;;;5012625;28;20003;-50
2022/03/24 10:45:39;;;;;;;;;;;;;;;;;;5011837;28;20391;-43
2022/03/24 10:48:05;;;;;;;;;;;;;;;;;;5007263;28;19948;-44
2022/03/24 10:50:32;;;;;;;;;;;;;;;;;;5012680;28;19945;-43
2022/03/24 10:52:59;;;;;;;;;;;;;;;;;;5012403;28;19909;-41
2022/03/24 10:55:25;;;;;;;;;;;;;;;;;;5012579;28;19909;-40
2022/03/24 10:57:51;;;;;;;;;;;;;;;;;;5007249;28;19910;-42
2022/03/24 11:00:19;;;;;;;;;;;;;;;;;;5011962;28;19953;-41
2022/03/24 11:02:45;;;;;;;;;;;;;;;;;;5012434;28;19913;-41
2022/03/24 11:05:15;;;;;;;;;;;;;;;;;;5012281;28;20364;-43
2022/03/24 11:07:41;;;;;;;;;;;;;;;;;;5009745;28;19909;-42
2022/03/24 11:10:08;;;;;;;;;;;;;;;;;;5010085;28;19937;-45
2022/03/24 11:12:39;;;;;;;;;;;;;;;;;;5011971;28;19986;-46
2022/03/24 11:15:06;;;;;;;;;;;;;;;;;;5011450;28;19956;-44
2022/03/24 11:17:32;;;;;;;;;;;;;;;;;;5010960;28;19916;-48
2022/03/24 11:19:59;;;;;;;;;;;;;;;;;;5006433;28;19964;-46
2022/03/24 11:22:25;;;;;;;;;;;;;;;;;;5011974;28;19945;-40
2022/03/24 11:24:52;;;;;;;;;;;;;;;;;;5012325;28;19917;-43
2022/03/24 11:27:19;;;;;;;;;;;;;;;;;;5011654;28;19914;-46
2022/03/24 11:29:46;;;;;;;;;;;;;;;;;;5007218;28;19916;-47
2022/03/24 11:32:12;;;;;;;;;;;;;;;;;;5012046;28;20348;-46
2022/03/24 11:34:39;;;;;;;;;;;;;;;;;;5012171;28;20246;-44
2022/03/24 11:37:05;;;;;;;;;;;;;;;;;;5011356;28;19968;-48
2022/03/24 11:39:32;;;;;;;;;;;;;;;;;;5006039;28;19933;-53
2022/03/24 11:41:58;;;;;;;;;;;;;;;;;;5011944;28;20380;-49
2022/03/24 11:44:25;;;;;;;;;;;;;;;;;;5008040;28;19918;-46
2022/03/24 11:46:51;;;;;;;;;;;;;;;;;;5011396;28;20376;-46
2022/03/24 11:49:18;;;;;;;;;;;;;;;;;;5006917;28;20253;-44
2022/03/24 11:51:44;;;;;;;;;;;;;;;;;;5011260;28;20024;-55
2022/03/24 11:54:11;;;;;;;;;;;;;;;;;;5011576;28;20360;-45
2022/03/24 11:56:37;;;;;;;;;;;;;;;;;;5011066;28;20313;-45
2022/03/24 11:59:06;;;;;;;;;;;;;;;;;;5006906;28;19956;-48
2022/03/24 12:01:33;;;;;;;;;;;;;;;;;;5011044;28;19964;-45
2022/03/24 12:04:00;;;;;;;;;;;;;;;;;;5011823;28;19913;-51
2022/03/24 12:06:26;;;;;;;;;;;;;;;;;;5010766;28;19914;-45
2022/03/24 12:08:52;;;;;;;;;;;;;;;;;;5006101;28;19949;-46
2022/03/24 12:11:19;;;;;;;;;;;;;;;;;;5011383;28;19909;-49
2022/03/24 12:13:45;;;;;;;;;;;;;;;;;;5011126;28;20012;-43
2022/03/24 12:16:12;;;;;;;;;;;;;;;;;;5010728;28;19990;-42
2022/03/24 12:18:39;;;;;;;;;;;;;;;;;;5005879;28;19909;-47
2022/03/24 12:21:06;;;;;;;;;;;;;;;;;;5010895;28;19910;-47
2022/03/24 12:23:33;;;;;;;;;;;;;;;;;;5010959;28;20067;-49
2022/03/24 12:25:59;;;;;;;;;;;;;;;;;;5013844;28;20348;-45
2022/03/24 12:28:27;;;;;;;;;;;;;;;;;;5010008;28;20314;-57
2022/03/24 12:30:53;;;;;;;;;;;;;;;;;;5015139;28;20012;-50
2022/03/24 12:33:20;;;;;;;;;;;;;;;;;;5015790;28;19909;-54
2022/03/24 12:35:46;;;;;;;;;;;;;;;;;;5015549;28;19910;-56
2022/03/24 12:38:13;;;;;;;;;;;;;;;;;;5009624;28;21100;-55
2022/03/24 12:40:39;;;;;;;;;;;;;;;;;;5014941;28;19921;-58
2022/03/24 12:43:06;;;;;;;;;;;;;;;;;;5014627;28;19983;-47
2022/03/24 12:45:32;;;;;;;;;;;;;;;;;;5014976;28;19921;-48
2022/03/24 12:47:59;;;;;;;;;;;;;;;;;;4992520;28;20039;-48
2022/03/24 12:50:26;;;;;;;;;;;;;;;;;;5014648;28;19909;-52
2022/03/24 12:52:52;;;;;;;;;;;;;;;;;;5014606;28;19916;-50
2022/03/24 12:55:20;;;;;;;;;;;;;;;;;;5014996;28;19916;-46
2022/03/24 12:57:46;;;;;;;;;;;;;;;;;;5011841;28;19952;-46
2022/03/24 13:00:12;;;;;;;;;;;;;;;;;;5012782;28;19936;-49
2022/03/24 13:02:41;;;;;;;;;;;;;;;;;;5016828;28;19960;-57
2022/03/24 13:05:11;;;;;;;;;;;;;;;;;;5014949;28;20252;-50
2022/03/24 13:07:37;;;;;;;;;;;;;;;;;;5016132;28;19909;-52
2022/03/24 13:10:04;;;;;;;;;;;;;;;;;;5015335;28;19952;-55
2022/03/24 13:12:31;;;;;;;;;;;;;;;;;;4997924;28;19913;-50
2022/03/24 13:14:57;;;;;;;;;;;;;;;;;;5015586;28;20318;-61
2022/03/24 13:17:25;;;;;;;;;;;;;;;;;;5015178;28;20371;-59
2022/03/24 13:19:52;;;;;;;;;;;;;;;;;;5015467;28;19910;-56
2022/03/24 13:22:19;;;;;;;;;;;;;;;;;;4997652;28;20388;-55
2022/03/24 13:24:45;;;;;;;;;;;;;;;;;;5015870;28;19957;-51
2022/03/24 13:27:12;;;;;;;;;;;;;;;;;;5015246;28;19909;-42
2022/03/24 13:29:38;;;;;;;;;;;;;;;;;;5015748;28;20000;-59
2022/03/24 13:32:05;;;;;;;;;;;;;;;;;;5016254;28;19909;-53
2022/03/24 13:34:31;;;;;;;;;;;;;;;;;;5016028;28;20252;-57
2022/03/24 13:36:58;;;;;;;;;;;;;;;;;;5015108;28;19909;-53
2022/03/24 13:39:24;;;;;;;;;;;;;;;;;;5015721;28;19933;-50
2022/03/24 13:41:51;;;;;;;;;;;;;;;;;;5015815;28;19909;-54
2022/03/24 13:44:17;;;;;;;;;;;;;;;;;;5015867;28;19944;-55
2022/03/24 13:46:44;;;;;;;;;;;;;;;;;;5015832;28;19960;-49
2022/03/24 13:49:10;;;;;;;;;;;;;;;;;;5015686;28;19910;-54
2022/03/24 13:51:37;;;;;;;;;;;;;;;;;;5015104;28;19917;-48
2022/03/24 13:54:03;;;;;;;;;;;;;;;;;;5015669;28;19963;-50
2022/03/24 13:56:30;;;;;;;;;;;;;;;;;;5015553;28;19909;-54
2022/03/24 13:58:56;;;;;;;;;;;;;;;;;;5015849;28;19910;-50
2022/03/24 14:01:22;;;;;;;;;;;;;;;;;;5015326;28;19916;-54
2022/03/24 14:03:49;;;;;;;;;;;;;;;;;;5014639;28;19924;-53
2022/03/24 14:06:18;;;;;;;;;;;;;;;;;;5015171;28;19964;-55
2022/03/24 14:08:47;;;;;;;;;;;;;;;;;;5014885;28;19949;-56
2022/03/24 14:11:15;;;;;;;;;;;;;;;;;;5015026;28;19909;-52
2022/03/24 14:13:41;;;;;;;;;;;;;;;;;;5014694;28;19963;-53
2022/03/24 14:16:08;;;;;;;;;;;;;;;;;;5014883;28;19909;-48
2022/03/24 14:18:35;;;;;;;;;;;;;;;;;;5015268;28;19936;-50
2022/03/24 14:21:01;;;;;;;;;;;;;;;;;;5015159;28;19915;-42
2022/03/24 14:23:28;;;;;;;;;;;;;;;;;;5014745;28;19913;-59
2022/03/24 14:25:54;;;;;;;;;;;;;;;;;;5015017;28;19917;-57
2022/03/24 14:28:21;;;;;;;;;;;;;;;;;;5015045;28;19917;-50
2022/03/24 14:30:47;;;;;;;;;;;;;;;;;;5015069;28;19955;-54
2022/03/24 14:33:13;;;;;;;;;;;;;;;;;;5014920;28;19913;-56
2022/03/24 14:35:40;;;;;;;;;;;;;;;;;;5014821;28;19909;-54
2022/03/24 14:38:06;;;;;;;;;;;;;;;;;;5014489;28;19944;-57
2022/03/24 14:40:33;;;;;;;;;;;;;;;;;;5015180;28;19909;-56
2022/03/24 14:42:59;;;;;;;;;;;;;;;;;;5014948;28;19920;-56
2022/03/24 14:45:26;;;;;;;;;;;;;;;;;;5014530;28;19988;-52
2022/03/24 14:47:52;;;;;;;;;;;;;;;;;;5014741;28;19917;-56
2022/03/24 14:50:19;;;;;;;;;;;;;;;;;;5014934;28;19909;-41
2022/03/24 14:52:45;;;;;;;;;;;;;;;;;;5014623;28;19956;-46
2022/03/24 14:55:12;;;;;;;;;;;;;;;;;;5014516;28;20280;-43
2022/03/24 14:57:38;;;;;;;;;;;;;;;;;;5014429;28;20018;-46
2022/03/24 15:00:06;;;;;;;;;;;;;;;;;;5014362;28;19995;-48
2022/03/24 15:02:32;;;;;;;;;;;;;;;;;;5014301;28;20245;-42
2022/03/24 15:04:59;;;;;;;;;;;;;;;;;;5014290;28;19918;-49
2022/03/24 15:07:25;;;;;;;;;;;;;;;;;;5013897;28;19910;-46
2022/03/24 15:09:52;;;;;;;;;;;;;;;;;;5014617;28;19910;-49
2022/03/24 15:12:18;;;;;;;;;;;;;;;;;;5014368;28;19910;-57
2022/03/24 15:17:29;;;;;;;;;;;;;;;;;;5014157;28;19924;-61
2022/03/24 15:19:56;;;;;;;;;;;;;;;;;;5014185;28;19960;-60
2022/03/24 15:22:22;;;;;;;;;;;;;;;;;;5013966;28;20355;-56
2022/03/24 15:24:49;;;;;;;;;;;;;;;;;;5013985;28;19918;-60
2022/03/24 15:27:16;;;;;;;;;;;;;;;;;;5013978;28;20126;-59
2022/03/24 15:29:42;;;;;;;;;;;;;;;;;;5013667;28;20383;-60
2022/03/24 15:32:09;;;;;;;;;;;;;;;;;;5014421;28;19910;-59
2022/03/24 15:34:35;;;;;;;;;;;;;;;;;;5013833;28;19913;-54
2022/03/24 15:37:02;;;;;;;;;;;;;;;;;;4996231;28;20353;-57
2022/03/24 15:39:29;;;;;;;;;;;;;;;;;;5013291;28;19921;-53
2022/03/24 15:41:55;;;;;;;;;;;;;;;;;;5013859;28;20004;-61
2022/03/24 15:44:22;;;;;;;;;;;;;;;;;;5013670;28;19917;-56
2022/03/24 15:46:49;;;;;;;;;;;;;;;;;;5013849;28;19949;-60
2022/03/24 15:49:15;;;;;;;;;;;;;;;;;;5013973;28;19910;-59
2022/03/24 15:51:41;;;;;;;;;;;;;;;;;;5013198;28;19909;-57
2022/03/24 15:54:08;;;;;;;;;;;;;;;;;;5013606;28;19996;-58
2022/03/24 15:56:37;;;;;;;;;;;;;;;;;;5013447;28;19913;-60
2022/03/24 15:59:03;;;;;;;;;;;;;;;;;;5013478;28;19996;-62
2022/03/24 16:01:30;;;;;;;;;;;;;;;;;;5010387;28;20296;-56
2022/03/24 16:03:56;;;;;;;;;;;;;;;;;;5013415;28;19913;-58
2022/03/24 16:06:23;;;;;;;;;;;;;;;;;;5011402;28;19917;-56
2022/03/24 16:08:49;;;;;;;;;;;;;;;;;;5013242;28;19955;-58
2022/03/24 16:11:16;;;;;;;;;;;;;;;;;;4995903;28;19910;-58
2022/03/24 16:13:42;;;;;;;;;;;;;;;;;;5013053;28;19952;-58
2022/03/24 16:16:08;;;;;;;;;;;;;;;;;;5013490;28;20004;-59
2022/03/24 16:18:36;;;;;;;;;;;;;;;;;;5013748;28;19920;-55
2022/03/24 16:21:02;;;;;;;;;;;;;;;;;;5013353;28;19917;-58
2022/03/24 16:23:29;;;;;;;;;;;;;;;;;;5013271;28;19913;-56
2022/03/24 16:25:56;;;;;;;;;;;;;;;;;;5013453;28;20283;-58
2022/03/24 16:28:22;;;;;;;;;;;;;;;;;;5013254;28;19910;-56
2022/03/24 16:30:49;;;;;;;;;;;;;;;;;;5013270;28;19909;-57
2022/03/24 16:33:15;;;;;;;;;;;;;;;;;;5013400;28;19909;-56
2022/03/24 16:35:42;;;;;;;;;;;;;;;;;;5013039;28;20000;-57
2022/03/24 16:38:08;;;;;;;;;;;;;;;;;;5013207;28;19956;-55
2022/03/24 16:40:35;;;;;;;;;;;;;;;;;;5013048;28;19925;-60
2022/03/24 16:43:01;;;;;;;;;;;;;;;;;;5013183;28;20000;-53
2022/03/24 16:45:28;;;;;;;;;;;;;;;;;;5012913;28;20330;-49